Flight Track Log - Related Links

Times and Time Zones

All times are in EDT time to prevent confusion due to time zone crossing. See the SWA35 flight status page for this flight to view local times or setup timezone preferences in your user account.


Time Position Orientation Groundspeed Altitude Reporting Facility
EDT Latitude Longitude Course Direction KTS MPH feet Rate Location/Type
Wed 12:55:54 PM 39.8167 -104.6500 136° Southeast 178 205 6,500  Level Denver TRACON
Wed 12:56:12 PM 39.8058 -104.6364 136° Southeast 174 200 7,000 2,175 Climbing Denver Center
Wed 12:57:14 PM 39.7589 -104.5631 130° Southeast 247 284 9,400 1,452 Climbing Denver Center
Wed 12:58:16 PM 39.7392 -104.4578 104° East 300 345 10,000 1,113 Climbing Denver Center
Wed 12:59:18 PM 39.7153 -104.3469 106° East 318 366 11,700 2,758 Climbing Denver Center
Wed 01:00:20 PM 39.6911 -104.2228 104° East 329 379 15,700 3,194 Climbing Denver Center
Wed 01:01:22 PM 39.6742 -104.0975 100° East 353 406 18,300 2,903 Climbing Denver Center
Wed 01:02:24 PM 39.6536 -103.9531 100° East 377 434 21,700 2,806 Climbing Denver Center
Wed 01:03:26 PM 39.6067 -103.8331 117° Southeast 376 433 24,100 2,160 Climbing Denver Center
Wed 01:04:29 PM 39.5692 -103.7106 112° Southeast 381 438 26,200 2,352 Climbing Denver Center
Wed 01:05:31 PM 39.5297 -103.5597 109° East 393 452 29,000 1,887 Climbing Denver Center
Wed 01:06:33 PM 39.4936 -103.4253 109° East 412 474 30,100 1,452 Climbing Denver Center
Wed 01:07:35 PM 39.4506 -103.2611 109° East 429 494 32,000 1,597 Climbing Denver Center
Wed 01:08:37 PM 39.4131 -103.1200 109° East 432 497 33,400 1,452 Climbing Denver Center
Wed 01:09:39 PM 39.3675 -102.9497 109° East 447 514 35,000 1,355 Climbing Denver Center
Wed 01:10:41 PM 39.3278 -102.8025 109° East 452 520 36,200 1,210 Climbing Denver Center
Wed 01:11:43 PM 39.2811 -102.6292 109° East 453 521 37,500 1,161 Climbing Denver Center
Wed 01:12:45 PM 39.2403 -102.4811 110° East 455 524 38,600 726 Climbing Denver Center
Wed 01:13:47 PM 39.2000 -102.3353 110° East 451 519 39,000 194 Climbing Denver Center
Wed 01:14:49 PM 39.1533 -102.1636 109° East 454 522 39,000  Level Denver Center
Wed 01:15:51 PM 39.0944 -102.0328 120° Southeast 449 517 39,000  Level Denver Center
Wed 01:16:53 PM 38.9789 -101.9419 149° Southeast 436 502 39,000  Level Denver Center
Wed 01:17:55 PM 38.8803 -101.8614 148° Southeast 438 504 39,000  Level Denver Center
Wed 01:18:57 PM 38.7636 -101.7692 148° Southeast 440 506 39,000  Level Denver Center
Wed 01:19:59 PM 38.6625 -101.6864 147° Southeast 449 517 39,000  Level Denver Center
Wed 01:21:01 PM 38.5422 -101.5944 149° Southeast 450 518 39,000  Level Denver Center
Wed 01:22:03 PM 38.4397 -101.5125 148° Southeast 453 521 39,000  Level Denver Center
Wed 01:23:05 PM 38.3189 -101.4203 149° Southeast 455 524 39,000  Level Denver Center
Wed 01:24:07 PM 38.2158 -101.3389 148° Southeast 455 524 39,000  Level Denver Center
Wed 01:25:09 PM 38.0958 -101.2453 148° Southeast 455 524 39,000  Level Denver Center
Wed 01:26:11 PM 37.9922 -101.1661 149° Southeast 455 524 39,000  Level Denver Center
Wed 01:27:13 PM 37.8714 -101.0728 149° Southeast 456 525 39,000  Level Denver Center
Wed 01:27:53 PM 37.8028 -101.0197 149° Southeast 455 524 39,000  Level Kansas City Center
Wed 01:28:55 PM 37.7056 -100.9456 149° Southeast 456 525 39,000  Level Kansas City Center
Wed 01:29:57 PM 37.5761 -100.8444 148° Southeast 456 525 39,000  Level Kansas City Center
Wed 01:30:59 PM 37.4644 -100.7594 149° Southeast 457 526 39,000  Level Kansas City Center
Wed 01:32:01 PM 37.3589 -100.6792 149° Southeast 461 531 39,000  Level Kansas City Center
Wed 01:33:03 PM 37.2361 -100.5856 149° Southeast 463 533 39,000  Level Kansas City Center
Wed 01:34:05 PM 37.1306 -100.5058 149° Southeast 464 534 39,000  Level Kansas City Center
Wed 01:35:07 PM 37.0056 -100.4119 149° Southeast 467 537 39,000  Level Kansas City Center
Wed 01:36:09 PM 36.8978 -100.3322 149° Southeast 468 539 39,000 -97 Level Kansas City Center
Wed 01:37:11 PM 36.7906 -100.2539 150° Southeast 468 539 38,800 -581 Descending Kansas City Center
Wed 01:38:13 PM 36.6669 -100.1597 149° Southeast 460 529 37,800 -968 Descending Kansas City Center
Wed 01:39:15 PM 36.5592 -100.0800 149° Southeast 452 520 36,800 -919 Descending Kansas City Center
Wed 01:40:17 PM 36.4506 -100.0008 150° Southeast 452 520 35,900 -919 Descending Kansas City Center
Wed 01:41:19 PM 36.3411 -99.9217 150° Southeast 454 522 34,900 -919 Descending Kansas City Center
Wed 01:42:21 PM 36.2322 -99.8411 149° Southeast 455 524 34,000 -1,016 Descending Kansas City Center
Wed 01:43:23 PM 36.1000 -99.7447 149° Southeast 458 527 32,800 -1,016 Descending Kansas City Center
Wed 01:44:25 PM 35.9889 -99.6639 150° Southeast 464 534 31,900 -919 Descending Kansas City Center
Wed 01:45:27 PM 35.8775 -99.5828 149° Southeast 467 537 30,900 -919 Descending Kansas City Center
Wed 01:46:29 PM 35.7647 -99.5008 149° Southeast 472 543 30,000 -968 Descending Kansas City Center
Wed 01:47:31 PM 35.7014 -99.3578 119° Southeast 497 572 28,900 -2,323 Descending Kansas City Center
Wed 01:48:33 PM 35.6644 -99.1628 103° East 494 568 25,200 -2,315 Descending Kansas City Center
Wed 01:49:38 PM 35.6483 -99.0100 97° East 466 536 24,000 -2,208 Descending Fort Worth Center
Wed 01:50:38 PM 35.6397 -98.8617 94° East 455 524 20,600 -2,500 Descending Fort Worth Center
Wed 01:51:38 PM 35.6331 -98.7161 93° East 444 511 19,000 -1,200 Descending Fort Worth Center
Wed 01:52:38 PM 35.6258 -98.5908 94° East 402 463 18,200 -1,748 Descending Fort Worth Center
Wed 01:53:21 PM 35.6206 -98.4861 94° East 365 420 16,000 -2,200 Descending Fort Worth Center
Wed 01:53:38 PM 35.6206 -98.4681 90° East 374 430 16,000 -2,857 Level Fort Worth Center
Wed 01:54:03 PM 35.6172 -98.3967 93° East 369 425 14,000 -2,900 Descending Fort Worth Center
Wed 01:54:38 PM 35.6175 -98.3403 90° East 366 421 13,100 -2,137 Descending Fort Worth Center
Wed 01:55:16 PM 35.6142 -98.2433 92° East 367 422 11,400 -2,000 Descending Fort Worth Center
Wed 01:55:38 PM 35.6122 -98.2178 95° East 366 421 11,100 -649 Descending Fort Worth Center
Wed 01:55:53 PM 35.6103 -98.1794 94° East 358 412 11,000 -700 Descending Fort Worth Center
Wed 01:56:38 PM 35.6025 -98.1053 97° East 353 406 10,400 -1,279 Descending Fort Worth Center
Wed 01:56:54 PM 35.5817 -98.0744 130° Southeast 294 338 9,700 -1,629 Descending Fort Worth Center
Wed 01:57:48 PM 35.5569 -97.9953 111° Southeast 290 334 8,500 -1,212 Descending Fort Worth Center
Wed 01:58:38 PM 35.5367 -97.9239 109° East 300 345 7,600 -1,343 Descending Fort Worth Center
Wed 01:58:55 PM 35.5242 -97.8881 113° Southeast 285 328 7,000 -2,000 Descending Fort Worth Center
Wed 01:59:38 PM 35.5097 -97.8369 109° East 281 323 5,600 -1,515 Descending Fort Worth Center
Wed 02:00:38 PM 35.4850 -97.7628 112° Southeast 259 298 4,400 -1,150 Descending Fort Worth Center
Wed 02:01:38 PM 35.4600 -97.6992 116° Southeast 230 265 3,300 -1,139 Descending Fort Worth Center
Wed 02:01:57 PM 35.4497 -97.6786 122° Southeast 175 201 2,900 -1,100 Descending Fort Worth Center
Wed 02:02:38 PM 35.4331 -97.6531 129° Southeast 196 226 2,200 -1,082 Descending Fort Worth Center
Wed 02:02:58 PM 35.4228 -97.6403 135° Southeast 133 153 1,800 -800 Descending Fort Worth Center
Wed 02:03:38 PM 35.4061 -97.6225 139° Southeast 161 185 1,400 -360 Descending Fort Worth Center
Wed 02:04:38 PM 35.3769 -97.5739 126° Southeast 155 178 1,200 -200 Descending Fort Worth Center

Login

Don't have an account? Register now (free) for customized features, flight alerts, and more!